Americus, Georgia
Current Conditions -  °F | °C
As of 10:35 PM on Thursday 18 Dec 2014 (Local Time) from KACJ Reporting Station
Broken Clouds Broken Clouds  
Wind Chill: 50°   Ceiling: 5000
Heat Index: 50°   Visibility: 10mi
Dew Point: 32°   Wind: 3mph
Humidity: 50%   Direction: 320°NW
Pressure: 30.18"   Gusts: NA
Location:  32.07°N, 84.23°W
Report Text: KACJ 190335Z AUTO 32003KT 10SM BKN050 10/00 A3018 RMK AO2
Loading
Personal Weather Stations






























Interactive Weather Map New forecast layout! Learn more

10-Day Weather Forecast

Advertisements
Track Severe Weather on mobile